createdAt,value
2023-04-21T00:00:11.743Z,6.97
2023-04-21T00:03:18.083Z,7.00
2023-04-21T00:06:23.224Z,7.70
2023-04-21T00:09:26.932Z,7.00
2023-04-21T00:12:30.544Z,8.07
2023-04-21T00:15:34.142Z,8.50
2023-04-21T00:18:39.915Z,9.10
2023-04-21T00:21:43.661Z,10.97
2023-04-21T00:24:47.377Z,9.73
2023-04-21T00:27:51.047Z,8.87
2023-04-21T00:30:55.575Z,8.00
2023-04-21T00:34:00.650Z,8.17
2023-04-21T00:37:04.595Z,7.60
2023-04-21T00:40:10.768Z,8.10
2023-04-21T00:43:16.795Z,8.40
2023-04-21T00:46:20.887Z,8.67
2023-04-21T00:49:27.027Z,8.60
2023-04-21T00:52:31.617Z,8.30
2023-04-21T00:55:35.512Z,8.60
2023-04-21T00:58:43.418Z,8.83
2023-04-21T01:01:47.076Z,8.40
2023-04-21T01:04:52.833Z,8.87
2023-04-21T01:07:56.574Z,9.23
2023-04-21T01:11:00.125Z,8.63
2023-04-21T01:14:03.724Z,9.60
2023-04-21T01:17:08.335Z,10.40
2023-04-21T01:20:15.038Z,9.77
2023-04-21T01:23:21.281Z,9.50
2023-04-21T01:26:25.074Z,10.10
2023-04-21T01:29:28.766Z,8.80
2023-04-21T01:32:32.577Z,9.10
2023-04-21T01:35:36.464Z,9.67
2023-04-21T01:38:43.210Z,8.57
2023-04-21T01:41:46.940Z,8.70
2023-04-21T01:44:51.419Z,8.10
2023-04-21T01:47:55.047Z,8.60
2023-04-21T01:50:58.812Z,8.90
2023-04-21T01:54:05.109Z,8.90
2023-04-21T01:57:08.968Z,9.77
2023-04-21T02:00:13.863Z,9.10
2023-04-21T02:03:21.744Z,8.80
2023-04-21T02:06:25.573Z,9.00
2023-04-21T02:09:31.371Z,9.47
2023-04-21T02:12:34.884Z,8.27
2023-04-21T02:15:39.111Z,8.60
2023-04-21T02:18:44.817Z,7.70
2023-04-21T02:21:48.739Z,7.67
2023-04-21T02:24:53.646Z,7.40
2023-04-21T02:27:57.547Z,7.50
2023-04-21T02:31:03.829Z,7.40
2023-04-21T02:34:10.529Z,6.80
2023-04-21T02:37:15.356Z,6.40
2023-04-21T02:40:21.404Z,7.13
2023-04-21T02:43:25.066Z,6.43
2023-04-21T02:46:28.689Z,6.93
2023-04-21T02:49:32.237Z,7.07
2023-04-21T02:52:38.295Z,7.07
2023-04-21T02:55:43.300Z,6.83
2023-04-21T02:58:46.800Z,6.27
2023-04-21T03:01:50.534Z,6.80
2023-04-21T03:04:54.380Z,7.00
2023-04-21T03:07:57.921Z,6.10
2023-04-21T03:11:03.186Z,6.17
2023-04-21T03:14:06.863Z,6.30
2023-04-21T03:17:10.861Z,6.10
2023-04-21T03:20:14.804Z,6.20
2023-04-21T03:23:18.457Z,7.03
2023-04-21T03:26:23.689Z,7.07
2023-04-21T03:29:27.351Z,7.03
2023-04-21T03:32:31.328Z,7.77
2023-04-21T03:35:35.630Z,7.73
2023-04-21T03:38:39.258Z,8.03
2023-04-21T03:41:44.410Z,8.33
2023-04-21T03:44:48.126Z,7.77
2023-04-21T03:47:55.415Z,8.53
2023-04-21T03:50:59.142Z,8.30
2023-04-21T03:54:02.736Z,7.67
2023-04-21T03:57:07.765Z,8.23
2023-04-21T04:00:12.962Z,8.73
2023-04-21T04:03:16.651Z,8.03
2023-04-21T04:06:20.537Z,8.33
2023-04-21T04:09:24.105Z,8.70
2023-04-21T04:12:29.270Z,9.57
2023-04-21T04:15:32.939Z,8.73
2023-04-21T04:18:36.662Z,8.43
2023-04-21T04:21:40.425Z,9.40
2023-04-21T04:24:45.352Z,9.03
2023-04-21T04:27:50.831Z,8.80
2023-04-21T04:30:55.623Z,9.07
2023-04-21T04:33:59.575Z,8.97
2023-04-21T04:37:03.884Z,9.20
2023-04-21T04:40:10.383Z,9.50
2023-04-21T04:43:15.604Z,9.60
2023-04-21T04:46:20.894Z,7.83
2023-04-21T04:49:24.816Z,7.87
2023-04-21T04:52:28.485Z,7.77
2023-04-21T04:55:32.506Z,8.83
2023-04-21T04:58:37.600Z,8.30
2023-04-21T05:01:42.254Z,8.57
2023-04-21T05:04:46.057Z,8.03
2023-04-21T05:07:49.914Z,7.83
2023-04-21T05:10:53.631Z,8.47
2023-04-21T05:13:58.848Z,8.77
2023-04-21T05:17:02.594Z,8.37
2023-04-21T05:20:06.957Z,8.40
2023-04-21T05:23:10.714Z,8.47
2023-04-21T05:26:14.336Z,8.13
2023-04-21T05:29:19.470Z,7.83
2023-04-21T05:32:23.283Z,8.13
2023-04-21T05:35:27.060Z,7.30
2023-04-21T05:38:30.701Z,6.33
2023-04-21T05:41:34.471Z,6.60
2023-04-21T05:44:40.320Z,6.00
2023-04-21T05:47:44.019Z,6.27
2023-04-21T05:50:47.787Z,6.60
2023-04-21T05:53:51.824Z,6.10
2023-04-21T05:56:55.480Z,6.10
2023-04-21T06:00:00.607Z,6.30
2023-04-21T06:03:05.063Z,5.70
2023-04-21T06:06:09.347Z,6.57
2023-04-21T06:09:15.852Z,5.83
2023-04-21T06:12:19.531Z,5.27
2023-04-21T06:15:24.790Z,5.57
2023-04-21T06:18:29.305Z,5.77
2023-04-21T06:21:33.064Z,5.70
2023-04-21T06:24:36.744Z,5.37
2023-04-21T06:27:40.474Z,5.53
2023-04-21T06:30:46.369Z,5.83
2023-04-21T06:33:50.101Z,5.83
2023-04-21T06:36:53.771Z,5.47
2023-04-21T06:39:57.604Z,6.03
2023-04-21T06:43:01.501Z,6.00
2023-04-21T06:46:06.862Z,5.13
2023-04-21T06:49:10.609Z,6.43
2023-04-21T06:52:14.675Z,7.10
2023-04-21T06:55:18.533Z,6.77
2023-04-21T06:58:22.254Z,5.30
2023-04-21T07:01:27.563Z,5.30
2023-04-21T07:04:32.433Z,5.57
2023-04-21T07:07:36.321Z,6.13
2023-04-21T07:10:40.059Z,6.17
2023-04-21T07:13:43.754Z,6.47
2023-04-21T07:16:48.921Z,6.37
2023-04-21T07:19:52.805Z,6.67
2023-04-21T07:22:56.936Z,6.80
2023-04-21T07:26:01.106Z,6.97
2023-04-21T07:29:04.882Z,7.07
2023-04-21T07:32:10.081Z,6.40
2023-04-21T07:35:13.754Z,6.83
2023-04-21T07:38:17.538Z,5.77
2023-04-21T07:41:21.205Z,6.40
2023-04-21T07:44:25.313Z,6.67
2023-04-21T07:47:30.827Z,6.10
2023-04-21T07:50:35.923Z,6.50
2023-04-21T07:53:39.562Z,6.13
2023-04-21T07:56:43.211Z,6.33
2023-04-21T07:59:46.855Z,7.20
2023-04-21T08:02:52.107Z,7.57
2023-04-21T08:05:56.076Z,6.60
2023-04-21T08:09:00.275Z,6.50
2023-04-21T08:12:04.173Z,6.73
2023-04-21T08:15:09.099Z,5.67
2023-04-21T08:18:18.214Z,5.95
2023-04-21T08:21:24.257Z,6.18
2023-04-21T08:24:28.009Z,6.40
2023-04-21T08:27:31.756Z,6.03
2023-04-21T08:30:35.558Z,5.68
2023-04-21T08:33:46.964Z,6.10
2023-04-21T08:37:02.218Z,6.15
2023-04-21T08:40:06.582Z,5.38
2023-04-21T08:43:10.630Z,5.45
2023-04-21T08:46:14.463Z,5.95
2023-04-21T08:49:22.277Z,5.68
2023-04-21T08:52:26.172Z,5.20
2023-04-21T08:55:32.221Z,5.35
2023-04-21T08:58:35.900Z,4.88
2023-04-21T09:02:11.195Z,5.38
2023-04-21T09:05:24.212Z,5.47
2023-04-21T09:08:30.006Z,5.28
2023-04-21T09:11:35.299Z,4.90
2023-04-21T09:14:38.977Z,4.82
2023-04-21T09:17:46.477Z,4.47
2023-04-21T09:20:53.315Z,5.25
2023-04-21T09:23:57.098Z,4.85
2023-04-21T09:27:05.141Z,4.60
2023-04-21T09:30:10.648Z,4.63
2023-04-21T09:33:27.941Z,4.50
2023-04-21T09:36:37.876Z,4.80
2023-04-21T09:39:53.047Z,5.00
2023-04-21T09:43:07.122Z,4.20
2023-04-21T09:46:12.723Z,4.00
2023-04-21T09:49:19.180Z,4.30
2023-04-21T09:52:25.855Z,4.40
2023-04-21T09:55:31.127Z,3.97
2023-04-21T09:58:41.968Z,4.30
2023-04-21T10:01:48.760Z,4.30
2023-04-21T10:04:53.021Z,3.72
2023-04-21T10:07:59.536Z,4.35
2023-04-21T10:11:05.233Z,3.72
2023-04-21T10:14:10.629Z,3.50
2023-04-21T10:17:15.051Z,3.55
2023-04-21T10:20:19.969Z,4.00
2023-04-21T10:23:33.284Z,3.50
2023-04-21T10:26:37.607Z,3.65
2023-04-21T10:29:55.756Z,3.33
2023-04-21T10:33:04.622Z,3.85
2023-04-21T10:36:14.383Z,4.47
2023-04-21T10:39:29.914Z,3.80
2023-04-21T10:42:37.763Z,3.55
2023-04-21T10:45:41.480Z,3.20
2023-04-21T10:48:54.115Z,3.00
2023-04-21T10:52:10.061Z,3.50
2023-04-21T10:55:16.306Z,3.63
2023-04-21T10:58:21.124Z,3.20
2023-04-21T11:01:25.116Z,3.40
2023-04-21T11:04:29.446Z,2.35
2023-04-21T11:07:33.865Z,2.85
2023-04-21T11:10:54.655Z,3.17
2023-04-21T11:14:01.661Z,3.45
2023-04-21T11:17:06.635Z,3.20
2023-04-21T11:20:11.228Z,3.15
2023-04-21T11:23:19.330Z,3.58
2023-04-21T11:26:35.927Z,2.35
2023-04-21T11:29:40.547Z,2.90
2023-04-21T11:32:44.409Z,2.85
2023-04-21T11:35:48.140Z,3.30
2023-04-21T11:38:51.897Z,3.10
2023-04-21T11:41:57.414Z,3.35
2023-04-21T11:45:01.103Z,4.05
2023-04-21T11:48:15.516Z,3.20
2023-04-21T11:51:22.173Z,3.38
2023-04-21T11:54:26.472Z,3.38
2023-04-21T11:57:32.678Z,3.20
2023-04-21T12:00:36.705Z,3.28
2023-04-21T12:03:40.844Z,3.42
2023-04-21T12:06:45.048Z,3.30
2023-04-21T12:09:53.150Z,3.50
2023-04-21T12:12:58.948Z,3.47
2023-04-21T12:16:04.596Z,3.20
2023-04-21T12:19:08.321Z,3.20
2023-04-21T12:22:13.309Z,3.25
2023-04-21T12:25:17.383Z,3.58
2023-04-21T12:28:22.662Z,3.85
2023-04-21T12:31:26.315Z,3.55
2023-04-21T12:34:30.124Z,3.63
2023-04-21T12:37:33.804Z,3.10
2023-04-21T12:40:37.533Z,3.30
2023-04-21T12:43:42.567Z,3.50
2023-04-21T12:46:46.333Z,3.33
2023-04-21T12:49:50.172Z,3.35
2023-04-21T12:52:55.471Z,2.63
2023-04-21T12:56:04.704Z,1.67
2023-04-21T12:59:11.309Z,1.90
2023-04-21T13:02:15.211Z,2.20
2023-04-21T13:05:19.189Z,1.58
2023-04-21T13:08:23.413Z,2.10
2023-04-21T13:11:27.367Z,1.70
2023-04-21T13:14:32.714Z,2.00
2023-04-21T13:17:36.470Z,2.00
2023-04-21T13:20:40.279Z,2.00
2023-04-21T13:23:43.992Z,2.20
2023-04-21T13:26:47.702Z,2.30
2023-04-21T13:29:54.491Z,2.58
2023-04-21T13:32:58.253Z,2.50
2023-04-21T13:36:02.119Z,2.85
2023-04-21T13:39:06.113Z,2.67
2023-04-21T13:42:09.934Z,2.72
2023-04-21T13:45:15.545Z,2.40
2023-04-21T13:48:20.038Z,2.72
2023-04-21T13:51:23.845Z,2.95
2023-04-21T13:54:27.929Z,3.00
2023-04-21T13:57:31.737Z,2.95
2023-04-21T14:00:36.910Z,2.47
2023-04-21T14:03:40.746Z,2.85
2023-04-21T14:06:44.775Z,3.03
2023-04-21T14:09:48.591Z,3.00
2023-04-21T14:12:52.241Z,3.08
2023-04-21T14:15:57.912Z,3.30
2023-04-21T14:19:01.796Z,3.40
2023-04-21T14:22:05.530Z,3.08
2023-04-21T14:25:09.855Z,3.30
2023-04-21T14:28:13.542Z,3.40
2023-04-21T14:31:21.626Z,3.63
2023-04-21T14:34:26.260Z,3.30
2023-04-21T14:37:30.221Z,3.30
2023-04-21T14:40:33.904Z,2.83
2023-04-21T14:43:37.720Z,3.08
2023-04-21T14:46:46.245Z,3.15
2023-04-21T14:49:56.196Z,2.92
2023-04-21T14:52:59.935Z,3.38
2023-04-21T14:56:03.705Z,2.97
2023-04-21T14:59:07.666Z,2.90
2023-04-21T15:02:13.979Z,3.00
2023-04-21T15:05:18.928Z,3.80
2023-04-21T15:08:22.657Z,3.80
2023-04-21T15:11:26.856Z,3.33
2023-04-21T15:14:30.581Z,2.80
2023-04-21T15:17:35.859Z,2.85
2023-04-21T15:20:45.072Z,2.80
2023-04-21T15:23:49.982Z,2.95
2023-04-21T15:26:53.711Z,3.13
2023-04-21T15:29:57.458Z,2.78
2023-04-21T15:33:02.752Z,2.70
2023-04-21T15:36:06.903Z,2.90
2023-04-21T15:39:14.253Z,2.30
2023-04-21T15:42:18.125Z,2.40
2023-04-21T15:45:21.896Z,2.40
2023-04-21T15:48:27.191Z,2.28
2023-04-21T15:51:32.502Z,2.10
2023-04-21T15:54:36.653Z,1.98
2023-04-21T15:57:40.858Z,2.10
2023-04-21T16:00:44.884Z,2.83
2023-04-21T16:03:50.325Z,3.38
2023-04-21T16:06:54.315Z,3.03
2023-04-21T16:09:58.218Z,5.00
2023-04-21T16:13:02.046Z,2.90
2023-04-21T16:16:05.945Z,3.72
2023-04-21T16:19:11.129Z,3.22
2023-04-21T16:22:14.854Z,3.00
2023-04-21T16:25:19.662Z,3.00
2023-04-21T16:28:23.616Z,2.92
2023-04-21T16:31:27.409Z,5.05
2023-04-21T16:34:32.566Z,2.78
2023-04-21T16:37:38.477Z,3.28
2023-04-21T16:40:42.181Z,3.08
2023-04-21T16:43:45.927Z,3.55
2023-04-21T16:46:49.768Z,2.63
2023-04-21T16:49:55.021Z,3.63
2023-04-21T16:52:58.754Z,5.35
2023-04-21T16:56:02.412Z,3.07
2023-04-21T16:59:08.327Z,3.60
2023-04-21T17:02:12.174Z,3.70
2023-04-21T17:05:17.934Z,3.73
2023-04-21T17:08:21.872Z,5.20
2023-04-21T17:11:25.683Z,4.50
2023-04-21T17:14:29.524Z,4.50
2023-04-21T17:17:43.522Z,6.70
2023-04-21T17:20:48.845Z,5.27
2023-04-21T17:23:52.594Z,4.97
2023-04-21T17:26:56.804Z,4.50
2023-04-21T17:30:00.572Z,4.63
2023-04-21T17:33:16.094Z,3.83
2023-04-21T17:36:22.328Z,3.90
2023-04-21T17:39:26.564Z,4.33
2023-04-21T17:42:30.395Z,3.70
2023-04-21T17:45:34.177Z,4.23
2023-04-21T17:48:37.833Z,4.67
2023-04-21T17:51:42.991Z,4.80
2023-04-21T17:54:47.111Z,3.73
2023-04-21T17:57:50.853Z,4.13
2023-04-21T18:00:54.659Z,4.20
2023-04-21T18:04:00.959Z,4.40
2023-04-21T18:07:06.871Z,5.00
2023-04-21T18:10:11.179Z,4.20
2023-04-21T18:13:14.870Z,3.47
2023-04-21T18:16:18.608Z,3.93
2023-04-21T18:19:22.302Z,4.37
2023-04-21T18:22:27.489Z,4.60
2023-04-21T18:25:42.164Z,5.33
2023-04-21T18:28:47.106Z,4.70
2023-04-21T18:31:50.952Z,5.00
2023-04-21T18:34:54.728Z,4.83
2023-04-21T18:37:59.882Z,4.70
2023-04-21T18:41:04.109Z,4.33
2023-04-21T18:44:08.130Z,5.10
2023-04-21T18:47:12.332Z,4.33
2023-04-21T18:50:16.277Z,4.60
2023-04-21T18:53:21.454Z,4.23
2023-04-21T18:56:25.602Z,4.77
2023-04-21T18:59:29.302Z,5.20
2023-04-21T19:02:33.055Z,5.50
2023-04-21T19:05:37.866Z,4.93
2023-04-21T19:08:43.239Z,4.87
2023-04-21T19:11:47.218Z,5.07
2023-04-21T19:14:51.555Z,5.80
2023-04-21T19:17:56.212Z,5.37
2023-04-21T19:20:59.885Z,4.87
2023-04-21T19:24:05.290Z,4.60
2023-04-21T19:27:09.342Z,5.00
2023-04-21T19:30:13.759Z,4.40
2023-04-21T19:33:17.608Z,3.87
2023-04-21T19:36:21.751Z,4.30
2023-04-21T19:39:26.881Z,5.10
2023-04-21T19:42:31.017Z,5.73
2023-04-21T19:45:34.777Z,6.03
2023-04-21T19:48:41.347Z,5.37
2023-04-21T19:51:46.331Z,5.80
2023-04-21T19:54:51.741Z,5.77
2023-04-21T19:57:55.527Z,6.50
2023-04-21T20:00:59.959Z,6.47
2023-04-21T20:04:04.877Z,6.40
2023-04-21T20:07:09.554Z,6.40
2023-04-21T20:10:15.061Z,5.80
2023-04-21T20:13:18.803Z,6.83
2023-04-21T20:16:22.570Z,6.07
2023-04-21T20:19:27.193Z,6.47
2023-04-21T20:22:31.126Z,6.63
2023-04-21T20:25:36.537Z,6.37
2023-04-21T20:28:40.331Z,7.17
2023-04-21T20:31:45.573Z,7.13
2023-04-21T20:34:49.256Z,7.33
2023-04-21T20:37:53.737Z,7.33
2023-04-21T20:40:59.955Z,7.27
2023-04-21T20:44:04.487Z,7.40
2023-04-21T20:47:08.982Z,7.37
2023-04-21T20:50:13.726Z,7.13
2023-04-21T20:53:17.464Z,7.17
2023-04-21T20:56:22.899Z,6.70
2023-04-21T20:59:26.621Z,7.60
2023-04-21T21:02:30.449Z,6.97
2023-04-21T21:05:34.872Z,6.53
2023-04-21T21:08:38.747Z,6.00
2023-04-21T21:11:43.909Z,6.07
2023-04-21T21:14:47.558Z,5.30
2023-04-21T21:17:51.325Z,5.20
2023-04-21T21:20:55.133Z,5.00
2023-04-21T21:23:58.718Z,5.50
2023-04-21T21:27:03.935Z,5.20
2023-04-21T21:30:09.084Z,5.03
2023-04-21T21:33:13.210Z,5.33
2023-04-21T21:36:17.002Z,4.67
2023-04-21T21:39:20.878Z,5.03
2023-04-21T21:42:26.169Z,6.00
2023-04-21T21:45:29.817Z,4.70
2023-04-21T21:48:33.653Z,4.80
2023-04-21T21:51:37.288Z,5.03
2023-04-21T21:54:41.149Z,5.40
2023-04-21T21:57:46.301Z,4.77
2023-04-21T22:00:52.098Z,5.40
2023-04-21T22:03:55.851Z,5.13
2023-04-21T22:06:59.600Z,5.27
2023-04-21T22:10:04.034Z,5.10
2023-04-21T22:13:09.236Z,5.43
2023-04-21T22:16:13.127Z,5.10
2023-04-21T22:19:17.913Z,5.23
2023-04-21T22:22:21.800Z,5.47
2023-04-21T22:25:27.350Z,5.40
2023-04-21T22:28:32.469Z,4.83
2023-04-21T22:31:36.293Z,4.93
2023-04-21T22:34:40.090Z,5.30
2023-04-21T22:37:43.980Z,4.90
2023-04-21T22:40:48.100Z,5.50
2023-04-21T22:43:53.121Z,4.87
2023-04-21T22:46:57.244Z,5.00
2023-04-21T22:50:01.118Z,5.53
2023-04-21T22:53:04.755Z,5.70
2023-04-21T22:56:08.417Z,5.00
2023-04-21T22:59:13.461Z,5.40
2023-04-21T23:02:17.243Z,5.40
2023-04-21T23:05:21.193Z,5.50
2023-04-21T23:08:24.942Z,5.87
2023-04-21T23:11:28.643Z,5.10
2023-04-21T23:14:33.822Z,5.57
2023-04-21T23:17:37.520Z,5.50
2023-04-21T23:20:41.187Z,5.30
2023-04-21T23:23:44.882Z,5.47
2023-04-21T23:26:48.420Z,6.03
2023-04-21T23:29:53.594Z,5.27
2023-04-21T23:32:57.366Z,5.27
2023-04-21T23:36:01.150Z,5.23
2023-04-21T23:39:04.929Z,5.43
2023-04-21T23:42:09.558Z,5.67
2023-04-21T23:45:14.767Z,5.13
2023-04-21T23:48:18.338Z,5.43
2023-04-21T23:51:22.070Z,5.40
2023-04-21T23:54:25.663Z,5.70
2023-04-21T23:57:29.339Z,5.00
